Aeroporto :
LOGIN :

Iscrizione | Disclaimer

   EN    FR    IT 

 










Sommario :    VFR   VFR Marginale   IFR   IFR Intensivo   IFR Molto Intensivo
Visibilità : 
Base nubi : 
>= 8 km
>= 3000ft
5 / 8 km
1000 / 3000 ft
1500m / 5 km
500 / 1000 ft
800 / 1500m
200 / 500 ft
< 800m
< 200 ft
Simboli :   Temporali  Nebbia  Neve Forte  Precipitazioni Forti  Vento > 20 kt
SIGMETs :   Varie  Temporali  Ghiacco  Turbolenza  Onda orograficha  Ceneri Vulcaniche






- Altitudine del aeroporto : 465 ft
- Codice IATA : LEJ


EDDP - Leipzig Halle

ULTIMO METAR :
  • 070050Z 22014KT 9999 BKN025 06/03 Q1005 TEMPO 21015G25KT

METARs OBSOLETI :
  • 070020Z 21014KT 9999 -RA BKN020 06/04 Q1005 TEMPO 21015G25KT
  • 062350Z 22015KT 9999 -RA BKN020 06/04 Q1006 TEMPO 21015G25KT
  • 062320Z 21011KT 9999 -RA BKN023 06/04 Q1006 TEMPO 21020G30KT
  • 062250Z 21011KT 9999 -RA BKN018 06/04 Q1006 TEMPO 21020G30KT
  • 062220Z 21009KT 9999 BKN018 06/03 Q1006 TEMPO 21020G30KT

TAF TAF EDDP
Valido dal 07 a 00 ore il 08 a 00 ore UTC


062300Z 0700/0724 21015G25KT 9999 BKN030
TEMPO 0700/0716 25020G30KT



MetMap, La meteo Aeronautica in un colpo d'occhio ! - Copyright ORBIFLY Dicembre 2007 - Disclaimer

ORBIFLY MET'MAP TEAM :

Programmazione e sviluppo : Alexandra Zaïnal
Concezione : Baudouin d'Aumeries
Aiuto per la programmazione : Marc-Olivier Méhu
Supporto tecnico e logistico : Manuel Goepfert
Aiuto per la traduzione : Arnaldo La Scala

Contatto : metmap@orbifly.com




FONTI E CREDITI :

   NOAA